Monday, July 28, 2014, 6:17 AM EDT

KW99, Petersburg, Grant County Airport

Location: Petersburg, WV, United States Lat: 38.983
Local Time: 6:17 AM EDT (10:17 GMT) Lon: -79.133
Time Zone: US/Eastern Elev: 961 ft

Show me the last for .
Show Decoded

2014-07-28 05:55 METAR KW99 280955Z AUTO 29003KT 10SM SCT070 SCT090 19/14 A2967 RMK AO2 T01860143
                 =
2014-07-28 05:35 METAR KW99 280935Z AUTO 00000KT 10SM SCT090 18/15 A2967 RMK AO2 T01830149 =
2014-07-28 05:15 METAR KW99 280915Z AUTO 00000KT 7SM SCT085 18/16 A2967 RMK AO2 T01810158 =
2014-07-28 04:35 METAR KW99 280835Z AUTO 10004KT 5SM BR CLR 19/16 A2967 RMK AO2 T01850162 =
2014-07-28 04:15 METAR KW99 280815Z AUTO 00000KT 7SM CLR 19/17 A2967 RMK AO2 T01880165 =
2014-07-28 03:55 METAR KW99 280755Z AUTO 00000KT 7SM SCT065 SCT120 19/16 A2967 RMK AO2 P0001
                 T01870162 =
2014-07-28 03:35 METAR KW99 280735Z AUTO 00000KT 10SM -RA SCT022 SCT035 SCT065 20/17 A2967 RMK
                 AO2 T01950165 =
2014-07-28 03:15 METAR KW99 280715Z AUTO 15003KT 7SM -RA SCT025 SCT065 BKN120 20/17 A2967 RMK AO2
                 T02000170 =
2014-07-28 02:55 METAR KW99 280655Z AUTO 00000KT 2SM -RA SCT021 BKN050 OVC070 20/17 A2969 RMK AO2
                 P0006 T02030167 =
2014-07-28 02:35 METAR KW99 280635Z AUTO 21009KT 7SM +RA SCT025 SCT046 BKN070 21/17 A2968 RMK AO2
                 LTG DSNT W P0003 T02060166 =
2014-07-28 02:15 METAR KW99 280615Z AUTO 20006KT 10SM SCT046 SCT055 SCT075 21/17 A2967 RMK AO2
                 T02060165 =
2014-07-28 01:55 METAR KW99 280555Z AUTO 00000KT 10SM SCT046 19/16 A2968 RMK AO2 60027 T01920163
                 10248 20188 402990177 =
2014-07-28 01:35 METAR KW99 280535Z AUTO 00000KT 10SM CLR 19/16 A2967 RMK AO2 T01900163 =
2014-07-28 01:15 METAR KW99 280515Z AUTO 00000KT 10SM CLR 19/17 A2967 RMK AO2 T01900165 =
2014-07-28 00:55 METAR KW99 280455Z AUTO 23003KT 10SM CLR 20/17 A2968 RMK AO2 T02010165 =
2014-07-28 00:35 METAR KW99 280435Z AUTO 12006KT 10SM CLR 20/17 A2968 RMK AO2 LTG DSNT N
                 T01950165 =
2014-07-28 00:15 METAR KW99 280415Z AUTO 13009G15KT 10SM VCTS CLR 20/17 A2969 RMK AO2 LTG DSNT N
                 T01990167 =
2014-07-27 23:55 METAR KW99 280355Z AUTO 14006KT 10SM CLR 19/17 A2970 RMK AO2 LTG DSNT SW
                 T01920166 =
2014-07-27 23:35 METAR KW99 280335Z AUTO 07005KT 10SM CLR 19/16 A2970 RMK AO2 T01920161 =
2014-07-27 23:15 METAR KW99 280315Z AUTO 17008KT 10SM CLR 20/16 A2971 RMK AO2 LTG DSNT N THRU SE
                 T01950162 =
2014-07-27 22:55 METAR KW99 280255Z AUTO 19005KT 10SM VCTS SCT120 19/16 A2973 RMK AO2 LTG DSNT N
                 THRU SE P0011 60027 T01940161 =
2014-07-27 22:35 METAR KW99 280235Z AUTO 24005KT 7SM -RA SCT017 SCT029 BKN039 20/16 A2976 RMK AO2
                 LTG DSNT ALQS P0010 T01960160 =
2014-07-27 22:15 METAR KW99 280215Z AUTO 36008G16KT 330V050 7SM +TSRA SCT016 BKN040 OVC050 21/16
                 A2974 RMK AO2 LTG DSNT ALQS P0004 T02100164 =
2014-07-27 21:55 METAR KW99 280155Z AUTO 00000KT 10SM -TSRA SCT022 BKN040 OVC050 22/19 A2974 RMK
                 AO2 LTG DSNT ALQS P0011 T02150185 =
2014-07-27 21:35 METAR KW99 280135Z AUTO 31003KT 3SM +TSRA SCT019 BKN049 OVC075 22/19 A2974 RMK
                 AO2 LTG DSNT ALQS P0010 T02150190 =
2014-07-27 21:15 METAR KW99 280115Z AUTO 00000KT 10SM -VCTSRA SCT047 SCT070 BKN080 22/19 A2971
                 RMK AO2 LTG DSNT ALQS P0001 T02200190 =
2014-07-27 20:55 METAR KW99 280055Z AUTO 25004KT 10SM VCTSRA BKN055 BKN120 22/19 A2972 RMK AO2
                 LTG DSNT S THRU NW P0005 T02190186 =
2014-07-27 20:35 METAR KW99 280035Z AUTO 00000KT 10SM -RA BKN055 BKN070 OVC090 22/19 A2972 RMK
                 AO2 LTG DSNT E W AND NW P0004 T02220190 =
2014-07-27 20:15 METAR KW99 280015Z AUTO 00000KT 10SM -VCTSRA SCT025 BKN065 OVC120 22/18 A2973
                 RMK AO2 LTG DSNT E W AND NW P0004 T02220183 =
2014-07-27 19:55 METAR KW99 272355Z AUTO 27004KT 10SM -VCTSRA SCT060 SCT075 BKN120 25/17 A2973
                 RMK AO2 LTG DSNT NE AND W T02490167 10299 20249 =
2014-07-27 19:35 METAR KW99 272335Z AUTO 24005KT 10SM SCT070 SCT080 27/14 A2972 RMK AO2 LTG DSNT
                 N T02730139 =
2014-07-27 19:15 METAR KW99 272315Z AUTO 19003KT 10SM TS BKN070 OVC080 29/13 A2971 RMK AO2 LTG
                 DSNT N AND NW T02870132 =
2014-07-27 18:55 METAR KW99 272255Z AUTO 19004KT 10SM SCT070 OVC080 29/13 A2972 RMK AO2 T02860129
                 =
2014-07-27 18:35 METAR KW99 272235Z AUTO 25003KT 10SM BKN090 29/13 A2972 RMK AO2 LTG DSNT N
                 T02920133 =
2014-07-27 18:15 METAR KW99 272215Z AUTO 26004KT 10SM SCT065 SCT090 30/14 A2973 RMK AO2 T02970138
                 =
2014-07-27 17:55 METAR KW99 272155Z AUTO 25007KT 10SM SCT065 30/13 A2974 RMK AO2 LTG DSNT NW THRU
                 E T02950132 =
2014-07-27 17:35 METAR KW99 272135Z AUTO 26010G16KT 10SM CLR 30/13 A2974 RMK AO2 T02980131 =
2014-07-27 17:15 METAR KW99 272115Z AUTO 22006KT 10SM CLR 30/16 A2974 RMK AO2 LTG DSNT N
                 T02960164 =
2014-07-27 16:35 METAR KW99 272035Z AUTO 00000KT 10SM SCT055 29/16 A2975 RMK AO2 LTG DSNT NW
                 T02930160 =
2014-07-27 16:15 METAR KW99 272015Z AUTO 20005KT 10SM CLR 28/16 A2975 RMK AO2 LTG DSNT SW
                 T02830158 =
2014-07-27 15:55 METAR KW99 271955Z AUTO 20005KT 10SM CLR 28/16 A2976 RMK AO2 T02840155 =
2014-07-27 15:35 METAR KW99 271935Z AUTO 23004KT 10SM SCT120 28/16 A2977 RMK AO2 T02820162 =
2014-07-27 15:15 METAR KW99 271915Z AUTO 16005KT 10SM CLR 28/16 A2978 RMK AO2 T02770164 =
2014-07-27 14:55 METAR KW99 271855Z AUTO 19003KT 10SM SCT110 28/16 A2980 RMK AO2 T02760162 =
2014-07-27 14:35 METAR KW99 271835Z AUTO 00000KT 10SM BKN110 27/16 A2980 RMK AO2 T02720161 =
2014-07-27 14:15 METAR KW99 271815Z AUTO 19004KT 10SM SCT050 OVC110 27/15 A2982 RMK AO2 T02680154
                 =
2014-07-27 13:55 METAR KW99 271755Z AUTO 19005KT 10SM OVC110 27/16 A2982 RMK AO2 T02660156 10266
                 20193 =
2014-07-27 13:35 METAR KW99 271735Z AUTO 19005KT 10SM BKN110 26/15 A2983 RMK AO2 T02640153 =
2014-07-27 13:15 METAR KW99 271715Z AUTO 22004KT 10SM BKN110 26/15 A2983 RMK AO2 T02640152 =
2014-07-27 12:55 METAR KW99 271655Z AUTO 20007KT 10SM OVC110 26/15 A2985 RMK AO2 T02580153 =
2014-07-27 12:35 METAR KW99 271635Z AUTO 18006KT 10SM BKN120 27/15 A2985 RMK AO2 T02650152 =
2014-07-27 12:15 METAR KW99 271615Z AUTO 21005KT 10SM SCT046 SCT120 26/16 A2985 RMK AO2 LTG DSNT
                 W T02580157 =
2014-07-27 11:55 METAR KW99 271555Z AUTO 20005KT 10SM SCT120 26/16 A2986 RMK AO2 T02570159 =
2014-07-27 11:35 METAR KW99 271535Z AUTO 19007KT 10SM CLR 26/16 A2985 RMK AO2 LTG DSNT SW
                 T02550163 =
2014-07-27 11:15 METAR KW99 271515Z AUTO 18006KT 10SM SCT120 25/16 A2985 RMK AO2 LTG DSNT W
                 T02530164 =
2014-07-27 10:55 METAR KW99 271455Z AUTO 19010KT 10SM BKN120 25/17 A2986 RMK AO2 LTG DSNT W
                 T02450168 =
2014-07-27 10:35 METAR KW99 271435Z AUTO 21008KT 10SM CLR 24/17 A2986 RMK AO2 T02390173 =
2014-07-27 10:15 METAR KW99 271415Z AUTO 19008KT 10SM CLR 23/17 A2987 RMK AO2 T02320172 =
2014-07-27 09:55 METAR KW99 271355Z AUTO 17005KT 10SM CLR 22/18 A2988 RMK AO2 T02210176 =
2014-07-27 09:35 METAR KW99 271335Z AUTO 10005KT 10SM CLR 22/18 A2987 RMK AO2 T02180175 =
2014-07-27 09:15 METAR KW99 271315Z AUTO 00000KT 10SM CLR 21/17 A2988 RMK AO2 T02110171 =
2014-07-27 08:55 METAR KW99 271255Z AUTO 00000KT 10SM CLR 21/17 A2988 RMK AO2 T02070169 =
2014-07-27 08:35 METAR KW99 271235Z AUTO 20004KT 10SM CLR 20/17 A2989 RMK AO2 T02020168 =
2014-07-27 08:15 METAR KW99 271215Z AUTO 20006KT 10SM CLR 20/16 A2990 RMK AO2 LTG DSNT NE AND SE
                 T01980164 =
2014-07-27 07:55 METAR KW99 271155Z AUTO 20010KT 10SM SCT039 SCT050 SCT070 19/16 A2991 RMK AO2
                 LTG DSNT SE 60069 70102 T01940160 10195 20177 =
2014-07-27 07:35 METAR KW99 271135Z AUTO 21008KT 10SM SCT037 SCT050 SCT070 19/16 A2992 RMK AO2
                 LTG DSNT SW T01920160 =
2014-07-27 07:15 METAR KW99 271115Z AUTO 21006KT 10SM SCT031 SCT037 BKN070 19/16 A2992 RMK AO2
                 T01860155 =
2014-07-27 06:55 METAR KW99 271055Z AUTO 20007KT 10SM -TSRA BKN034 BKN055 OVC090 18/15 A2992 RMK
                 AO2 LTG DSNT SW P0001 T01830153 =
2014-07-27 06:35 METAR KW99 271035Z AUTO 00000KT 10SM OVC032 18/15 A2992 RMK AO2 LTG DSNT W
                 T01820154 =

Support USWX by starting your Amazon purchase here.